Time;durP1;ratioP1;P1;durP2;ratioP2;P2;SDS_P1;SDS_P2;PMS_P1;PMS_P2;Temp;Humidity;BMP_temperature;BMP_pressure;BME280_temperature;BME280_humidity;BME280_pressure;Samples;Min_cycle;Max_cycle;Signal;HPM_P1;HPM_P2
2022/01/08 00:01:33;;;;;;;57.88;36.22;;;51.90;2227.20;;;;;;5049510;28;20074;-58
2022/01/08 00:03:59;;;;;;;66.97;39.40;;;51.70;2227.20;;;;;;5050251;28;20392;-61
2022/01/08 00:06:25;;;;;;;72.53;44.45;;;51.50;2227.20;;;;;;5050618;28;20048;-60
2022/01/08 00:08:51;;;;;;;77.93;46.65;;;51.60;2227.20;;;;;;5050382;28;20356;-60
2022/01/08 00:11:21;;;;;;;86.63;50.75;;;51.60;2227.20;;;;;;5050269;28;20037;-61
2022/01/08 00:13:48;;;;;;;87.88;54.20;;;51.60;2227.20;;;;;;5050106;28;20091;-61
2022/01/08 00:16:13;;;;;;;93.10;53.38;;;51.70;2227.20;;;;;;5050375;28;20451;-61
2022/01/08 00:18:39;;;;;;;77.95;47.25;;;51.60;2227.20;;;;;;5050609;28;20022;-61
2022/01/08 00:21:05;;;;;;;78.75;45.92;;;51.80;2227.20;;;;;;5050287;28;20542;-60
2022/01/08 00:23:31;;;;;;;89.38;52.00;;;51.80;2227.20;;;;;;5050333;28;20021;-61
2022/01/08 00:26:00;;;;;;;99.95;55.40;;;51.60;2227.20;;;;;;5050024;28;20064;-61
2022/01/08 00:28:26;;;;;;;90.35;53.17;;;51.40;2227.20;;;;;;5050353;28;20028;-61
2022/01/08 00:30:53;;;;;;;84.75;53.05;;;51.40;2227.20;;;;;;5050012;28;20029;-61
2022/01/08 00:33:19;;;;;;;99.40;57.20;;;51.30;2227.20;;;;;;5050327;28;20102;-61
2022/01/08 00:35:45;;;;;;;89.47;50.15;;;51.40;2227.20;;;;;;5050062;28;20483;-60
2022/01/08 00:38:11;;;;;;;79.60;45.55;;;51.40;2227.20;;;;;;5050129;28;20032;-60
2022/01/08 00:40:37;;;;;;;79.88;48.78;;;51.60;2227.20;;;;;;5050025;28;20032;-61
2022/01/08 00:43:03;;;;;;;91.55;50.97;;;51.60;2227.20;;;;;;5050050;28;20028;-60
2022/01/08 00:45:29;;;;;;;88.70;53.03;;;51.80;2227.20;;;;;;5050139;28;20025;-60
2022/01/08 00:47:54;;;;;;;86.65;47.40;;;51.90;2227.20;;;;;;5049879;28;20386;-60
2022/01/08 00:50:21;;;;;;;62.38;41.67;;;52.00;2227.20;;;;;;5050132;28;20025;-61
2022/01/08 00:52:48;;;;;;;71.63;42.63;;;52.00;2227.20;;;;;;5049848;28;20033;-61
2022/01/08 00:55:13;;;;;;;85.03;50.70;;;51.90;2227.20;;;;;;5049726;28;20037;-61
2022/01/08 00:57:39;;;;;;;80.05;47.30;;;51.70;2227.20;;;;;;5049924;28;20025;-61
2022/01/08 01:00:09;;;;;;;78.35;48.35;;;51.80;2227.20;;;;;;5048365;28;20060;-61
2022/01/08 01:02:35;;;;;;;79.20;48.05;;;51.80;2227.20;;;;;;5049700;28;20140;-60
2022/01/08 01:05:01;;;;;;;87.75;48.35;;;51.70;2227.20;;;;;;5049786;28;20029;-60
2022/01/08 01:07:27;;;;;;;76.05;40.53;;;51.70;2227.20;;;;;;5049567;28;20037;-61
2022/01/08 01:09:52;;;;;;;74.35;44.72;;;51.80;2227.20;;;;;;5049531;28;20029;-60
2022/01/08 01:12:18;;;;;;;88.57;50.17;;;51.80;2227.20;;;;;;5051855;28;20426;-60
2022/01/08 01:14:44;;;;;;;87.35;54.85;;;51.70;2227.20;;;;;;5053626;28;20083;-60
2022/01/08 01:17:10;;;;;;;81.18;51.70;;;51.70;2227.20;;;;;;5053799;28;20033;-60
2022/01/08 01:19:36;;;;;;;89.65;52.75;;;51.60;2227.20;;;;;;5053511;28;20091;-61
2022/01/08 01:22:03;;;;;;;90.07;51.45;;;51.70;2227.20;;;;;;5053702;28;20021;-61
2022/01/08 01:24:30;;;;;;;78.55;50.20;;;51.70;2227.20;;;;;;5053571;28;20360;-61
2022/01/08 01:29:43;;;;;;;67.22;42.08;;;51.90;2227.20;;;;;;5053507;28;20475;-61
2022/01/08 01:43:22;;;;;;;78.65;47.92;;;51.80;2227.20;;;;;;5052945;28;20028;-61
2022/01/08 01:48:46;;;;;;;76.57;44.05;;;51.70;2227.20;;;;;;5050822;28;20266;-59
2022/01/08 01:51:23;;;;;;;69.43;42.00;;;51.70;2227.20;;;;;;5050705;28;20025;-62
2022/01/08 01:53:50;;;;;;;67.20;40.72;;;51.90;2227.20;;;;;;5050669;28;20032;-60
2022/01/08 01:56:17;;;;;;;67.35;39.85;;;52.00;2227.20;;;;;;5050539;28;20041;-60
2022/01/08 01:58:43;;;;;;;67.25;40.55;;;52.00;2227.20;;;;;;5050492;28;20040;-60
2022/01/08 02:01:09;;;;;;;54.85;34.33;;;52.10;2227.20;;;;;;5050468;28;20025;-61
2022/01/08 02:03:35;;;;;;;58.10;35.42;;;76.80;2227.20;;;;;;5050184;28;20183;-60
2022/01/08 02:06:01;;;;;;;55.40;34.80;;;52.00;2227.20;;;;;;5050468;28;20037;-58
2022/01/08 02:08:29;;;;;;;53.75;32.95;;;52.10;2227.20;;;;;;5050244;28;20025;-59
2022/01/08 02:10:54;;;;;;;46.80;31.13;;;52.10;2227.20;;;;;;5049984;28;20095;-61
2022/01/08 02:13:22;;;;;;;53.38;31.85;;;52.10;2227.20;;;;;;5050244;28;20029;-58
2022/01/08 02:15:52;;;;;;;44.10;28.27;;;52.10;2227.20;;;;;;5050269;28;20128;-61
2022/01/08 02:18:18;;;;;;;50.35;31.23;;;52.00;2227.20;;;;;;5050276;28;20120;-59
2022/01/08 02:20:44;;;;;;;48.40;31.50;;;52.00;2227.20;;;;;;5050299;28;20044;-58
2022/01/08 02:23:10;;;;;;;55.35;32.42;;;52.00;2227.20;;;;;;5049210;28;20032;-59
2022/01/08 02:25:35;;;;;;;47.05;31.10;;;52.00;2227.20;;;;;;5052217;28;20433;-61
2022/01/08 02:28:05;;;;;;;45.80;28.33;;;51.90;2227.20;;;;;;5052392;28;20082;-60
2022/01/08 02:30:31;;;;;;;48.17;29.35;;;51.80;2227.20;;;;;;5052285;28;20036;-60
2022/01/08 02:32:57;;;;;;;45.65;28.35;;;52.10;2227.20;;;;;;5052072;28;20479;-61
2022/01/08 02:35:23;;;;;;;44.22;27.10;;;51.90;2227.20;;;;;;5051972;28;20072;-60
2022/01/08 02:37:50;;;;;;;42.05;27.83;;;51.90;2227.20;;;;;;5052046;28;20464;-60
2022/01/08 02:40:18;;;;;;;47.42;27.50;;;52.00;2227.20;;;;;;5051799;28;20025;-61
2022/01/08 02:43:01;;;;;;;45.58;27.40;;;52.10;2227.20;;;;;;5052011;28;20159;-59
2022/01/08 02:45:28;;;;;;;45.58;26.88;;;76.90;2227.20;;;;;;5051852;28;20036;-60
2022/01/08 02:47:55;;;;;;;42.08;27.02;;;52.10;2227.20;;;;;;5051745;28;20033;-59
2022/01/08 02:50:22;;;;;;;43.47;30.17;;;76.90;2227.20;;;;;;5051974;28;20021;-59
2022/01/08 02:52:48;;;;;;;50.70;29.88;;;76.90;2227.20;;;;;;5051914;28;20093;-60
2022/01/08 02:55:17;;;;;;;44.28;25.77;;;76.80;2227.20;;;;;;5051758;28;20029;-59
2022/01/08 02:57:43;;;;;;;44.00;26.98;;;76.90;2227.20;;;;;;5051956;28;20099;-60
2022/01/08 03:00:12;;;;;;;43.38;26.63;;;77.00;2227.20;;;;;;5051685;28;20497;-60
2022/01/08 03:02:45;;;;;;;44.83;28.15;;;77.00;2227.20;;;;;;5051324;28;20052;-59
2022/01/08 03:05:12;;;;;;;48.47;29.52;;;77.00;2227.20;;;;;;5051592;28;20111;-58
2022/01/08 03:07:39;;;;;;;57.70;31.67;;;77.00;2227.20;;;;;;5051496;28;20028;-61
2022/01/08 03:10:07;;;;;;;47.53;30.42;;;76.90;2227.20;;;;;;5051160;28;20468;-59
2022/01/08 03:12:33;;;;;;;51.28;33.58;;;76.90;2227.20;;;;;;5051391;28;20029;-60
2022/01/08 03:14:59;;;;;;;48.65;30.83;;;76.90;2227.20;;;;;;5051222;28;20091;-59
2022/01/08 03:17:25;;;;;;;48.70;31.45;;;76.90;2227.20;;;;;;5051085;28;20029;-59
2022/01/08 03:19:52;;;;;;;50.58;31.77;;;76.80;2227.20;;;;;;5051403;28;20017;-60
2022/01/08 03:22:18;;;;;;;43.75;30.45;;;52.10;2227.20;;;;;;5051326;28;20033;-59
2022/01/08 03:24:45;;;;;;;53.60;33.33;;;52.10;2227.20;;;;;;5051144;28;20108;-59
2022/01/08 03:27:11;;;;;;;52.78;32.25;;;52.00;2227.20;;;;;;5051420;28;20036;-60
2022/01/08 03:29:37;;;;;;;53.40;33.58;;;52.10;2227.20;;;;;;5051213;28;20048;-60
2022/01/08 03:32:03;;;;;;;56.60;31.88;;;52.00;2227.20;;;;;;5050848;28;20472;-60
2022/01/08 03:34:29;;;;;;;55.35;32.85;;;52.10;2227.20;;;;;;5050928;28;20114;-60
2022/01/08 03:36:55;;;;;;;49.83;30.58;;;76.90;2227.20;;;;;;5050860;28;20068;-59
2022/01/08 03:39:22;;;;;;;48.38;29.48;;;76.90;2227.20;;;;;;5050985;28;20040;-60
2022/01/08 03:41:48;;;;;;;48.92;31.50;;;52.10;2227.20;;;;;;5051153;28;20056;-60
2022/01/08 03:44:13;;;;;;;42.88;25.15;;;52.10;2227.20;;;;;;5050880;28;20365;-60
2022/01/08 03:46:39;;;;;;;50.25;30.77;;;76.80;2227.20;;;;;;5050999;28;20031;-60
2022/01/08 03:51:37;;;;;;;46.35;29.63;;;76.90;2227.20;;;;;;5050451;28;20064;-60
2022/01/08 03:54:03;;;;;;;44.53;28.92;;;76.90;2227.20;;;;;;5050422;28;20029;-60
2022/01/08 03:56:29;;;;;;;45.63;28.50;;;52.10;2227.20;;;;;;5050879;28;20024;-61
2022/01/08 03:58:55;;;;;;;40.13;26.95;;;52.00;2227.20;;;;;;5050565;28;20119;-60
2022/01/08 04:01:21;;;;;;;42.83;26.48;;;52.10;2227.20;;;;;;5050370;28;20546;-60
2022/01/08 04:03:46;;;;;;;44.45;28.35;;;51.90;2227.20;;;;;;5050361;28;20052;-60
2022/01/08 04:06:12;;;;;;;51.15;33.92;;;52.00;2227.20;;;;;;5050479;28;20095;-60
2022/01/08 04:08:38;;;;;;;44.13;27.85;;;76.80;2227.20;;;;;;5050645;28;20064;-71
2022/01/08 04:11:03;;;;;;;47.55;29.33;;;52.10;2227.20;;;;;;5051504;28;20036;-71
2022/01/08 04:13:33;;;;;;;41.65;28.40;;;51.90;2227.20;;;;;;5051713;28;20071;-67
2022/01/08 04:16:08;;;;;;;42.72;28.35;;;52.10;2227.20;;;;;;5051460;28;20443;-65
2022/01/08 04:18:34;;;;;;;47.58;29.20;;;52.10;2227.20;;;;;;5051459;28;20146;-70
2022/01/08 04:23:26;;;;;;;45.28;27.63;;;51.90;2227.20;;;;;;5051801;28;20021;-63
2022/01/08 04:25:51;;;;;;;45.30;30.23;;;51.90;2227.20;;;;;;5051139;28;20029;-60
2022/01/08 04:28:17;;;;;;;45.38;27.55;;;52.00;2227.20;;;;;;5050394;28;20383;-60
2022/01/08 04:30:43;;;;;;;43.90;27.65;;;52.10;2227.20;;;;;;5050150;28;20056;-59
2022/01/08 04:33:09;;;;;;;46.08;28.20;;;52.00;2227.20;;;;;;5050337;28;20130;-62
2022/01/08 04:35:35;;;;;;;45.17;27.75;;;51.80;2227.20;;;;;;5049951;28;20102;-59
2022/01/08 04:38:01;;;;;;;45.00;26.25;;;51.80;2227.20;;;;;;5050134;28;20029;-60
2022/01/08 04:40:27;;;;;;;42.97;27.25;;;51.80;2227.20;;;;;;5049915;28;20033;-60
2022/01/08 04:42:52;;;;;;;37.45;25.05;;;51.80;2227.20;;;;;;5050206;28;20442;-61
2022/01/08 04:45:18;;;;;;;45.13;25.85;;;51.60;2227.20;;;;;;5050337;28;20519;-60
2022/01/08 04:47:44;;;;;;;41.28;25.33;;;51.60;2227.20;;;;;;5053064;28;20075;-60
2022/01/08 04:50:12;;;;;;;42.28;26.05;;;51.70;2227.20;;;;;;5054400;28;20032;-59
2022/01/08 04:52:39;;;;;;;41.90;28.25;;;51.90;2227.20;;;;;;5054195;28;20081;-60
2022/01/08 04:55:05;;;;;;;48.08;29.80;;;51.80;2227.20;;;;;;5054106;28;20037;-59
2022/01/08 04:57:31;;;;;;;43.10;28.05;;;51.80;2227.20;;;;;;5054169;28;20021;-60
2022/01/08 04:59:57;;;;;;;51.13;31.52;;;51.60;2227.20;;;;;;5053663;28;20064;-60
2022/01/08 05:02:22;;;;;;;43.03;29.05;;;51.80;2227.20;;;;;;5053867;28;20063;-59
2022/01/08 05:04:48;;;;;;;50.38;30.15;;;51.90;2227.20;;;;;;5053993;28;20406;-60
2022/01/08 05:07:14;;;;;;;41.65;29.25;;;52.00;2227.20;;;;;;5053754;28;20039;-60
2022/01/08 05:09:39;;;;;;;44.83;31.33;;;52.00;2227.20;;;;;;5053677;28;20032;-60
2022/01/08 05:12:05;;;;;;;52.28;31.52;;;52.00;2227.20;;;;;;5053492;28;20033;-60
2022/01/08 05:14:31;;;;;;;45.78;29.33;;;51.90;2227.20;;;;;;5053561;28;20392;-60
2022/01/08 05:17:00;;;;;;;51.42;30.38;;;52.00;2227.20;;;;;;5053553;28;20040;-59
2022/01/08 05:19:46;;;;;;;49.53;31.70;;;52.10;2227.20;;;;;;5053275;28;20024;-59
2022/01/08 05:22:21;;;;;;;49.67;32.50;;;52.10;2227.20;;;;;;5053695;28;20379;-60
2022/01/08 05:24:47;;;;;;;50.70;30.45;;;52.10;2227.20;;;;;;5053564;28;20033;-60
2022/01/08 05:27:17;;;;;;;54.33;30.35;;;52.00;2227.20;;;;;;5053526;28;20108;-60
2022/01/08 05:29:43;;;;;;;47.63;31.33;;;52.00;2227.20;;;;;;5053499;28;20025;-59
2022/01/08 05:32:16;;;;;;;50.03;31.60;;;52.10;2227.20;;;;;;5053329;28;20091;-59
2022/01/08 05:34:46;;;;;;;44.80;29.43;;;52.00;2227.20;;;;;;5053420;28;20052;-59
2022/01/08 05:37:12;;;;;;;49.72;31.55;;;52.00;2227.20;;;;;;5053513;28;20036;-60
2022/01/08 05:39:39;;;;;;;57.13;32.15;;;52.00;2227.20;;;;;;5053389;28;20071;-60
2022/01/08 05:42:04;;;;;;;45.22;29.70;;;52.00;2227.20;;;;;;5053088;28;20111;-60
2022/01/08 05:44:30;;;;;;;52.45;30.13;;;76.80;2227.20;;;;;;5053138;28;20111;-59
2022/01/08 05:46:56;;;;;;;46.65;28.65;;;52.00;2227.20;;;;;;5053001;28;20078;-60
2022/01/08 05:49:22;;;;;;;44.30;30.65;;;51.90;2227.20;;;;;;5053081;28;20037;-61
2022/01/08 05:51:47;;;;;;;47.22;29.73;;;52.00;2227.20;;;;;;5053173;28;20036;-59
2022/01/08 05:54:13;;;;;;;47.75;29.67;;;52.00;2227.20;;;;;;5052746;28;20146;-60
2022/01/08 05:56:39;;;;;;;43.15;28.00;;;51.90;2227.20;;;;;;5052914;28;20115;-60
2022/01/08 05:59:05;;;;;;;45.50;28.52;;;52.10;2227.20;;;;;;5052600;28;20057;-61
2022/01/08 06:01:33;;;;;;;42.17;27.33;;;52.10;2227.20;;;;;;5052724;28;20036;-61
2022/01/08 06:04:00;;;;;;;40.20;27.20;;;52.10;2227.20;;;;;;5052548;28;20064;-59
2022/01/08 06:06:25;;;;;;;38.65;25.48;;;52.10;2227.20;;;;;;5052916;28;20383;-59
2022/01/08 06:08:52;;;;;;;36.42;24.98;;;51.90;2227.20;;;;;;5052730;28;20510;-60
2022/01/08 06:11:18;;;;;;;42.08;27.50;;;52.10;2227.20;;;;;;5052642;28;20029;-60
2022/01/08 06:13:44;;;;;;;43.00;28.10;;;52.10;2227.20;;;;;;5052483;28;20033;-61
2022/01/08 06:16:10;;;;;;;43.72;27.13;;;76.90;2227.20;;;;;;5052404;28;20118;-60
2022/01/08 06:18:36;;;;;;;46.33;29.55;;;76.80;2227.20;;;;;;5052159;28;20472;-59
2022/01/08 06:21:03;;;;;;;42.10;26.55;;;76.80;2227.20;;;;;;5052502;28;20492;-59
2022/01/08 06:23:29;;;;;;;46.15;28.90;;;76.90;2227.20;;;;;;5052600;28;20017;-60
2022/01/08 06:25:55;;;;;;;44.75;29.38;;;76.90;2227.20;;;;;;5052363;28;20103;-60
2022/01/08 06:28:21;;;;;;;42.97;28.13;;;76.90;2227.20;;;;;;5052537;28;20025;-60
2022/01/08 06:30:47;;;;;;;45.03;29.73;;;77.00;2227.20;;;;;;5052116;28;20047;-60
2022/01/08 06:33:14;;;;;;;43.65;27.27;;;77.00;2227.20;;;;;;5052116;28;20029;-59
2022/01/08 06:35:40;;;;;;;51.33;30.73;;;77.00;2227.20;;;;;;5052424;28;20033;-60
2022/01/08 06:38:06;;;;;;;45.92;28.50;;;77.00;2227.20;;;;;;5052059;28;20482;-61
2022/01/08 06:40:32;;;;;;;66.00;43.92;;;77.10;2227.20;;;;;;5052221;28;20106;-61
2022/01/08 06:42:58;;;;;;;51.97;33.78;;;77.10;2227.20;;;;;;5052164;28;20029;-60
2022/01/08 06:45:23;;;;;;;50.83;31.77;;;77.10;2227.20;;;;;;5051802;28;20025;-60
2022/01/08 06:47:49;;;;;;;38.03;27.38;;;76.90;2227.20;;;;;;5052022;28;20025;-59
2022/01/08 06:50:15;;;;;;;47.92;28.83;;;76.90;2227.20;;;;;;5051929;28;20379;-60
2022/01/08 06:52:40;;;;;;;45.47;27.00;;;76.90;2227.20;;;;;;5052000;28;20021;-60
2022/01/08 06:55:07;;;;;;;56.42;34.10;;;76.90;2227.20;;;;;;5051779;28;20098;-61
2022/01/08 06:57:33;;;;;;;44.08;29.45;;;76.80;2227.20;;;;;;5051526;28;20056;-60
2022/01/08 07:00:01;;;;;;;54.92;35.22;;;52.10;2227.20;;;;;;5051653;28;20053;-59
2022/01/08 07:02:28;;;;;;;49.17;29.88;;;76.90;2227.20;;;;;;5051477;28;20082;-61
2022/01/08 07:04:53;;;;;;;60.08;38.97;;;76.80;2227.20;;;;;;5051418;28;20064;-60
2022/01/08 07:07:19;;;;;;;72.55;42.95;;;77.00;2227.20;;;;;;5051606;28;20502;-59
2022/01/08 07:09:45;;;;;;;62.03;36.53;;;77.10;2227.20;;;;;;5050978;28;20025;-61
2022/01/08 07:12:11;;;;;;;49.85;28.77;;;77.10;2227.20;;;;;;5051345;28;20024;-59
2022/01/08 07:14:36;;;;;;;48.00;29.45;;;77.30;2227.20;;;;;;5051095;28;20101;-61
2022/01/08 07:17:02;;;;;;;67.82;43.35;;;77.40;2227.20;;;;;;5051375;28;20028;-61
2022/01/08 07:19:28;;;;;;;92.05;57.00;;;77.50;2227.20;;;;;;5051281;28;20033;-60
2022/01/08 07:21:54;;;;;;;84.80;60.00;;;77.50;2227.20;;;;;;5051106;28;20028;-61
2022/01/08 07:24:20;;;;;;;71.05;46.53;;;77.40;2227.20;;;;;;5051257;28;20025;-60
2022/01/08 07:26:46;;;;;;;47.13;30.60;;;77.50;2227.20;;;;;;5050128;28;20037;-61
2022/01/08 07:29:12;;;;;;;45.15;29.38;;;77.50;2227.20;;;;;;5051210;28;20052;-61
2022/01/08 07:31:37;;;;;;;47.55;32.38;;;77.50;2227.20;;;;;;5050804;28;20036;-61
2022/01/08 07:34:03;;;;;;;47.08;29.50;;;77.50;2227.20;;;;;;5050857;28;20075;-60
2022/01/08 07:36:29;;;;;;;58.97;38.53;;;77.60;2227.20;;;;;;5051045;28;20028;-60
2022/01/08 07:38:54;;;;;;;53.72;32.92;;;77.60;2227.20;;;;;;5050962;28;20544;-59
2022/01/08 07:41:20;;;;;;;59.83;35.92;;;77.60;2227.20;;;;;;5051133;28;20383;-60
2022/01/08 07:43:46;;;;;;;62.15;39.88;;;77.70;2227.20;;;;;;5050874;28;20031;-61
2022/01/08 07:46:12;;;;;;;65.53;44.40;;;77.70;2227.20;;;;;;5050933;28;20071;-60
2022/01/08 07:48:38;;;;;;;67.97;56.10;;;77.70;2227.20;;;;;;5050596;28;20032;-59
2022/01/08 07:51:03;;;;;;;52.08;34.75;;;102.40;2227.20;;;;;;5050556;28;20033;-59
2022/01/08 07:53:29;;;;;;;52.30;34.38;;;102.60;2227.20;;;;;;5050850;28;20092;-61
2022/01/08 07:55:55;;;;;;;55.20;36.50;;;102.50;2227.20;;;;;;5050312;28;20040;-59
2022/01/08 07:58:21;;;;;;;48.15;32.03;;;102.60;2227.20;;;;;;5050607;28;20028;-54
2022/01/08 08:00:51;;;;;;;50.38;33.33;;;102.50;2227.20;;;;;;5050544;28;20028;-54
2022/01/08 08:03:18;;;;;;;52.80;34.92;;;102.70;2227.20;;;;;;5050300;28;20106;-56
2022/01/08 08:05:45;;;;;;;51.13;33.00;;;102.80;2227.20;;;;;;5050151;28;20028;-55
2022/01/08 08:08:17;;;;;;;54.00;34.63;;;103.10;2227.20;;;;;;5050357;28;20037;-63
2022/01/08 08:10:47;;;;;;;51.33;32.88;;;128.00;2252.80;;;;;;5050155;28;20491;-55
2022/01/08 08:13:13;;;;;;;64.30;35.78;;;128.00;2252.80;;;;;;5050544;28;20029;-55
2022/01/08 08:15:39;;;;;;;51.13;32.10;;;128.20;2252.80;;;;;;5050275;28;20051;-55
2022/01/08 08:18:05;;;;;;;54.47;33.15;;;128.30;2252.80;;;;;;5050116;28;20104;-55
2022/01/08 08:20:30;;;;;;;46.65;32.80;;;128.20;2252.80;;;;;;5049727;28;20029;-55
2022/01/08 08:22:56;;;;;;;54.85;34.28;;;128.40;2252.80;;;;;;5047884;28;20021;-55
2022/01/08 08:25:22;;;;;;;48.10;32.33;;;128.50;2252.80;;;;;;5038046;28;20033;-55
2022/01/08 08:27:50;;;;;;;49.33;33.55;;;128.60;2252.80;;;;;;5030114;28;20383;-55
2022/01/08 08:30:16;;;;;;;52.70;36.58;;;128.60;2252.80;;;;;;5030020;28;20041;-56
2022/01/08 08:32:41;;;;;;;55.70;35.65;;;128.60;2252.80;;;;;;5030270;28;20034;-57
2022/01/08 08:35:08;;;;;;;65.30;41.15;;;128.70;2252.80;;;;;;5027232;28;20095;-54
2022/01/08 08:37:36;;;;;;;62.03;41.10;;;128.70;2252.80;;;;;;5028287;28;20100;-55
2022/01/08 08:40:05;;;;;;;55.60;36.13;;;128.60;2252.80;;;;;;5028539;28;20029;-56
2022/01/08 08:42:31;;;;;;;74.85;50.15;;;128.60;2252.80;;;;;;5028483;28;20045;-55
2022/01/08 08:44:57;;;;;;;63.78;38.42;;;128.50;2252.80;;;;;;5028404;28;20067;-62
2022/01/08 08:47:23;;;;;;;70.88;46.55;;;128.60;2252.80;;;;;;5028116;28;20026;-55
2022/01/08 08:49:48;;;;;;;56.45;37.67;;;128.70;2252.80;;;;;;5028437;28;20566;-55
2022/01/08 08:52:14;;;;;;;53.40;38.00;;;128.80;2252.80;;;;;;5028497;28;20025;-55
2022/01/08 08:54:41;;;;;;;67.18;45.58;;;128.80;2252.80;;;;;;5028415;28;20044;-55
2022/01/08 08:57:08;;;;;;;69.40;46.22;;;128.70;2252.80;;;;;;5028228;28;20037;-56
2022/01/08 08:59:34;;;;;;;78.55;51.72;;;128.80;2252.80;;;;;;5027745;28;20041;-59
2022/01/08 09:01:59;;;;;;;82.93;57.38;;;128.80;2252.80;;;;;;5028259;28;20406;-59
2022/01/08 09:04:25;;;;;;;79.85;51.90;;;128.90;2252.80;;;;;;5028064;28;20050;-56
2022/01/08 09:06:51;;;;;;;61.85;44.05;;;153.60;2252.80;;;;;;5028340;28;20026;-61
2022/01/08 09:09:17;;;;;;;52.55;35.50;;;128.70;2252.80;;;;;;5028404;28;20036;-56
2022/01/08 09:11:43;;;;;;;59.63;39.70;;;128.80;2252.80;;;;;;5028465;28;20032;-55
2022/01/08 09:14:08;;;;;;;62.67;41.92;;;128.90;2252.80;;;;;;5027784;28;20017;-55
2022/01/08 09:16:35;;;;;;;90.53;56.20;;;128.80;2252.80;;;;;;5028241;28;20029;-55
2022/01/08 09:19:01;;;;;;;59.63;38.72;;;128.80;2252.80;;;;;;5028248;28;20435;-55
2022/01/08 09:21:27;;;;;;;65.53;38.63;;;128.80;2252.80;;;;;;5027962;28;20033;-56
2022/01/08 09:23:53;;;;;;;63.90;42.60;;;128.80;2252.80;;;;;;5028063;28;20626;-57
2022/01/08 09:26:19;;;;;;;47.40;32.40;;;153.70;2252.80;;;;;;5027613;28;20116;-55
2022/01/08 09:28:47;;;;;;;59.88;40.28;;;153.60;2252.80;;;;;;5028142;28;20620;-55
2022/01/08 09:31:13;;;;;;;43.53;30.70;;;153.60;2252.80;;;;;;5028106;28;20033;-55
2022/01/08 09:33:39;;;;;;;57.25;36.40;;;128.90;2252.80;;;;;;5030844;28;20129;-55
2022/01/08 09:36:06;;;;;;;55.22;37.83;;;128.90;2252.80;;;;;;5031475;28;20095;-56
2022/01/08 09:38:32;;;;;;;58.35;39.28;;;153.60;2252.80;;;;;;5031323;28;20476;-57
2022/01/08 09:40:58;;;;;;;49.47;33.40;;;153.70;2252.80;;;;;;5031489;28;20068;-57
2022/01/08 09:43:24;;;;;;;40.70;28.27;;;153.80;2252.80;;;;;;5031463;28;20029;-56
2022/01/08 09:45:50;;;;;;;39.67;27.60;;;153.90;2252.80;;;;;;5031658;28;20519;-55
2022/01/08 09:48:16;;;;;;;37.13;24.10;;;153.70;2252.80;;;;;;5031439;28;20027;-55
2022/01/08 09:50:42;;;;;;;38.97;27.30;;;153.70;2252.80;;;;;;5031505;28;20025;-55
2022/01/08 09:53:08;;;;;;;49.92;29.58;;;128.40;2252.80;;;;;;5031132;28;20030;-59
2022/01/08 09:55:34;;;;;;;48.05;30.00;;;128.80;2252.80;;;;;;5031097;28;20548;-56
2022/01/08 09:58:00;;;;;;;42.67;26.40;;;128.60;2252.80;;;;;;5031502;28;20108;-54
2022/01/08 10:00:26;;;;;;;46.13;27.85;;;128.70;2252.80;;;;;;5031094;28;20490;-55
2022/01/08 10:02:52;;;;;;;38.92;25.52;;;128.60;2252.80;;;;;;5031171;28;20046;-56
2022/01/08 10:05:18;;;;;;;43.75;28.10;;;153.60;2252.80;;;;;;5030754;28;20025;-55
2022/01/08 10:07:59;;;;;;;39.67;25.23;;;153.60;2252.80;;;;;;5031015;28;20029;-57
2022/01/08 10:10:27;;;;;;;39.95;26.70;;;153.70;2252.80;;;;;;5031195;28;20418;-55
2022/01/08 10:13:01;;;;;;;44.15;27.98;;;153.70;2252.80;;;;;;5031109;28;20500;-55
2022/01/08 10:18:24;;;;;;;44.83;26.75;;;153.60;2252.80;;;;;;5030839;28;20040;-61
2022/01/08 10:20:51;;;;;;;41.03;23.33;;;128.90;2252.80;;;;;;5031084;28;20029;-61
2022/01/08 10:23:18;;;;;;;40.42;26.75;;;128.90;2252.80;;;;;;5030907;28;20103;-56
2022/01/08 10:25:56;;;;;;;40.10;27.25;;;128.90;2252.80;;;;;;5030543;28;20060;-56
2022/01/08 10:28:42;;;;;;;36.25;25.25;;;128.40;2252.80;;;;;;5030744;28;20021;-56
2022/01/08 10:31:41;;;;;;;36.17;23.70;;;128.40;2252.80;;;;;;5029997;28;20788;-55
2022/01/08 10:34:13;;;;;;;41.28;26.88;;;128.30;2252.80;;;;;;5028721;28;20045;-64
2022/01/08 10:36:45;;;;;;;38.83;27.17;;;128.60;2252.80;;;;;;5030373;28;20080;-55
2022/01/08 10:39:23;;;;;;;44.00;26.05;;;128.50;2252.80;;;;;;5030029;28;20049;-64
2022/01/08 10:41:54;;;;;;;41.33;25.65;;;128.40;2252.80;;;;;;5030051;28;20029;-62
2022/01/08 10:44:33;;;;;;;44.50;29.13;;;128.40;2252.80;;;;;;5028992;28;20423;-55
2022/01/08 10:47:13;;;;;;;46.63;27.88;;;128.20;2252.80;;;;;;5029874;28;20033;-56
2022/01/08 10:49:40;;;;;;;40.40;27.50;;;128.00;2252.80;;;;;;5029775;28;20034;-55
2022/01/08 10:52:08;;;;;;;34.50;24.40;;;128.10;2252.80;;;;;;5029584;28;20472;-55
2022/01/08 10:54:40;;;;;;;41.10;26.67;;;128.10;2252.80;;;;;;5029538;28;20625;-55
2022/01/08 10:57:08;;;;;;;55.17;36.08;;;103.30;2227.20;;;;;;5026443;28;20154;-54
2022/01/08 10:59:36;;;;;;;53.30;33.47;;;103.20;2227.20;;;;;;5010761;28;20029;-56
2022/01/08 11:02:07;;;;;;;43.75;29.58;;;103.10;2227.20;;;;;;5027512;28;20108;-55
2022/01/08 11:04:47;;;;;;;46.10;31.60;;;103.20;2227.20;;;;;;5027608;28;20067;-61
2022/01/08 11:07:16;;;;;;;47.72;33.30;;;128.00;2252.80;;;;;;5027641;28;20045;-56
2022/01/08 11:09:43;;;;;;;37.10;26.55;;;128.00;2252.80;;;;;;5027497;28;20037;-54
2022/01/08 11:12:19;;;;;;;47.55;29.23;;;128.30;2252.80;;;;;;5029803;28;20022;-55
2022/01/08 11:17:28;;;;;;;43.58;28.27;;;128.50;2252.80;;;;;;5029930;28;20491;-55
2022/01/08 11:19:56;;;;;;;51.30;31.38;;;128.40;2252.80;;;;;;5029844;28;20025;-55
2022/01/08 11:22:25;;;;;;;50.70;30.38;;;128.60;2252.80;;;;;;5029411;28;20574;-55
2022/01/08 11:25:03;;;;;;;56.08;38.22;;;128.50;2252.80;;;;;;5029811;28;20025;-54
2022/01/08 11:27:44;;;;;;;40.53;28.40;;;128.10;2252.80;;;;;;5029642;28;20025;-54
2022/01/08 11:30:20;;;;;;;47.40;30.13;;;128.30;2252.80;;;;;;5029506;28;20026;-62
2022/01/08 11:32:50;;;;;;;51.00;30.33;;;128.30;2252.80;;;;;;5029546;28;20053;-55
2022/01/08 11:35:17;;;;;;;42.15;29.13;;;128.40;2252.80;;;;;;5029775;28;20112;-54
2022/01/08 11:37:48;;;;;;;54.05;32.63;;;128.60;2252.80;;;;;;5033501;28;20076;-55
2022/01/08 11:40:16;;;;;;;38.00;28.20;;;128.60;2252.80;;;;;;5029213;28;20035;-57
2022/01/08 11:42:43;;;;;;;46.22;30.45;;;128.50;2252.80;;;;;;5029495;28;20032;-54
2022/01/08 11:45:14;;;;;;;84.13;58.22;;;128.40;2252.80;;;;;;5029573;28;20029;-57
2022/01/08 11:47:50;;;;;;;45.92;30.45;;;128.70;2252.80;;;;;;5028879;28;20029;-60
2022/01/08 11:50:25;;;;;;;63.40;43.50;;;128.70;2252.80;;;;;;5029179;28;20365;-64
2022/01/08 11:53:12;;;;;;;40.88;29.15;;;128.60;2252.80;;;;;;5029210;28;20021;-59
2022/01/08 11:55:38;;;;;;;39.15;26.50;;;128.50;2252.80;;;;;;5029097;28;20102;-54
2022/01/08 11:58:26;;;;;;;53.08;36.45;;;128.50;2252.80;;;;;;5028956;28;20028;-55
2022/01/08 12:00:58;;;;;;;44.63;30.60;;;128.70;2252.80;;;;;;5028524;28;20034;-57
2022/01/08 12:03:50;;;;;;;63.35;43.92;;;128.80;2252.80;;;;;;5028812;28;20049;-57
2022/01/08 12:11:54;;;;;;;45.75;33.58;;;128.40;2252.80;;;;;;5028680;28;20029;-59
2022/01/08 12:14:44;;;;;;;42.78;27.80;;;128.60;2252.80;;;;;;5028385;28;20032;-53
2022/01/08 12:17:21;;;;;;;39.55;30.00;;;128.50;2252.80;;;;;;5028556;28;20041;-56
2022/01/08 12:19:56;;;;;;;50.10;35.33;;;128.50;2252.80;;;;;;5028585;28;20083;-55
2022/01/08 12:22:22;;;;;;;40.80;29.70;;;128.70;2252.80;;;;;;5029117;28;20441;-55
2022/01/08 12:24:52;;;;;;;46.75;29.38;;;128.40;2252.80;;;;;;5028664;28;20717;-55
2022/01/08 12:27:37;;;;;;;39.72;27.90;;;128.80;2252.80;;;;;;5028159;28;20043;-56
2022/01/08 12:30:15;;;;;;;45.97;28.90;;;128.90;2252.80;;;;;;5028737;28;20025;-55
2022/01/08 12:32:45;;;;;;;43.20;31.90;;;128.90;2252.80;;;;;;5028688;28;20033;-54
2022/01/08 12:35:22;;;;;;;43.55;28.85;;;128.90;2252.80;;;;;;5028512;28;20042;-55
2022/01/08 12:38:00;;;;;;;42.28;27.52;;;128.90;2252.80;;;;;;5028473;28;20041;-55
2022/01/08 12:40:47;;;;;;;42.85;25.55;;;128.90;2252.80;;;;;;5027946;28;20025;-56